Date,TemperatureHighF,TemperatureAvgF,TemperatureLowF,DewpointHighF,DewpointAvgF,DewpointLowF,HumidityHigh,HumidityAvg,HumidityLow,PressureMaxIn,PressureMinIn,WindSpeedMaxMPH,WindSpeedAvgMPH,GustSpeedMaxMPH,PrecipitationSumIn
2013-3-1,60.5,51.8,44.4,40.4,36.3,31.3,78,57,35,30.16,30.03,18,4,20,0.00
2013-3-2,50.1,44.1,38.1,36.4,31.2,27.5,79,61,49,30.25,30.12,21,6,22,0.00
2013-3-3,56.7,45.2,35.3,38.3,31.1,26.1,79,59,38,30.29,30.14,14,3,14,0.00
2013-3-4,68.3,58.0,41.7,57.5,50.6,37.6,91,77,61,30.14,29.93,23,5,26,0.00
2013-3-5,75.9,66.6,54.9,64.6,55.3,38.5,90,69,38,30.18,29.92,19,5,19,0.00
2013-3-6,63.0,54.0,45.5,45.1,32.8,28.7,70,46,28,30.33,30.18,20,6,21,0.00
2013-3-7,63.4,53.0,44.1,45.4,38.7,31.8,92,60,33,30.34,30.21,10,2,10,0.00
2013-3-8,70.4,57.3,42.5,50.8,45.4,40.6,95,68,41,30.29,30.16,10,2,11,0.00
2013-3-9,70.9,62.6,53.6,61.0,56.0,48.6,89,79,66,30.17,29.93,18,5,18,0.00
2013-3-10,76.3,69.1,62.3,68.4,64.3,59.7,93,85,69,29.98,29.86,25,6,26,0.13
2013-3-11,67.8,54.8,46.3,66.0,48.3,41.6,96,80,51,30.02,29.83,23,5,23,0.55
2013-3-12,66.1,55.7,47.8,45.3,41.6,36.8,78,61,40,30.19,30.01,16,4,16,0.00
2013-3-13,66.3,57.0,45.6,47.7,39.4,30.9,90,56,27,30.38,30.19,20,5,20,0.00
2013-3-14,66.6,55.7,48.0,46.5,34.1,26.6,77,46,28,30.44,30.29,15,4,16,0.00
2013-3-15,74.0,60.6,46.2,52.0,46.9,42.1,92,64,34,30.31,30.12,20,3,20,0.00
2013-3-16,75.8,64.7,52.1,60.8,56.4,50.5,97,76,51,30.14,29.94,18,4,18,0.00
2013-3-17,76.9,67.9,60.6,66.7,62.5,58.2,93,84,60,29.96,29.83,15,4,17,0.00
2013-3-18,83.0,73.2,67.3,70.7,67.7,64.6,96,84,62,29.88,29.74,16,3,17,0.00
2013-3-19,72.6,66.1,60.5,66.0,58.6,51.3,92,77,61,30.01,29.86,20,6,20,0.00
2013-3-20,68.0,62.4,56.8,61.3,45.7,34.6,92,56,31,30.15,29.94,20,7,27,0.01
2013-3-21,65.0,58.3,52.3,49.6,40.7,34.7,75,53,38,30.05,29.85,14,4,15,0.00
2013-3-22,77.9,68.3,57.6,69.6,63.3,49.7,92,84,74,29.87,29.74,14,4,16,0.00
2013-3-23,77.0,70.0,64.1,72.6,68.2,63.4,98,94,84,29.81,29.56,13,3,13,0.00
2013-3-24,72.0,66.0,51.3,70.5,54.6,33.3,95,70,32,29.98,29.58,23,6,25,0.00
2013-3-25,59.7,49.7,41.4,35.6,30.7,23.1,71,50,25,30.24,29.98,24,7,24,0.00
2013-3-26,55.7,48.7,41.1,32.5,29.0,23.4,66,47,35,30.39,30.24,19,7,22,0.00
2013-3-27,61.2,51.3,42.2,44.0,37.2,31.5,84,59,42,30.43,30.27,13,3,15,0.00
2013-3-28,68.8,55.6,41.6,51.1,46.0,39.6,95,73,40,30.35,30.23,13,2,13,0.00
2013-3-29,72.5,60.8,46.8,58.3,52.9,45.4,97,77,46,30.31,30.17,16,3,17,0.00
2013-3-30,75.5,65.9,53.8,61.7,58.1,52.1,96,78,51,30.19,30.01,16,3,18,0.00
2013-3-31,78.2,65.9,59.1,67.9,62.2,58.2,98,89,67,30.04,29.89,24,3,24,0.18